Time;durP1;ratioP1;P1;durP2;ratioP2;P2;SDS_P1;SDS_P2;PMS_P1;PMS_P2;Temp;Humidity;BMP_temperature;BMP_pressure;BME280_temperature;BME280_humidity;BME280_pressure;Samples;Min_cycle;Max_cycle;Signal;HPM_P1;HPM_P2
2022/07/27 00:03:44;;;;;;;;;;;28.70;38.20;;;;;;8366400;28;20004;-43
2022/07/27 00:07:45;;;;;;;;;;;28.60;38.10;;;;;;8365820;28;20431;-44
2022/07/27 00:11:46;;;;;;;;;;;28.60;38.20;;;;;;8366204;28;19913;-43
2022/07/27 00:15:46;;;;;;;;;;;28.60;38.20;;;;;;8366162;28;19927;-44
2022/07/27 00:19:47;;;;;;;;;;;28.60;38.20;;;;;;8365456;28;19932;-44
2022/07/27 00:23:47;;;;;;;;;;;28.60;38.20;;;;;;8365842;28;20298;-45
2022/07/27 00:27:47;;;;;;;;;;;28.60;38.30;;;;;;8365744;28;19913;-45
2022/07/27 00:31:48;;;;;;;;;;;28.60;38.20;;;;;;8365614;28;19995;-45
2022/07/27 00:35:48;;;;;;;;;;;28.60;38.20;;;;;;8366032;28;19913;-44
2022/07/27 00:39:49;;;;;;;;;;;28.50;38.20;;;;;;8365174;28;19929;-44
2022/07/27 00:43:49;;;;;;;;;;;28.50;38.20;;;;;;8364818;28;19920;-46
2022/07/27 00:47:50;;;;;;;;;;;28.60;38.20;;;;;;8365197;28;19923;-45
2022/07/27 00:51:50;;;;;;;;;;;28.50;38.20;;;;;;8364959;28;19913;-45
2022/07/27 00:55:51;;;;;;;;;;;28.50;38.20;;;;;;8364475;28;19924;-44
2022/07/27 00:59:51;;;;;;;;;;;28.50;38.20;;;;;;8364742;28;19925;-44
2022/07/27 01:03:52;;;;;;;;;;;28.50;38.20;;;;;;8364639;28;19917;-45
2022/07/27 01:07:52;;;;;;;;;;;28.50;38.20;;;;;;8363091;28;20409;-44
2022/07/27 01:11:52;;;;;;;;;;;28.50;38.20;;;;;;8374317;28;19925;-44
2022/07/27 01:15:53;;;;;;;;;;;28.50;38.20;;;;;;8397576;28;19939;-45
2022/07/27 01:19:54;;;;;;;;;;;28.50;38.20;;;;;;8366729;28;19935;-45
2022/07/27 01:23:54;;;;;;;;;;;28.50;38.20;;;;;;8364064;28;20343;-44
2022/07/27 01:27:55;;;;;;;;;;;28.40;38.10;;;;;;8364024;28;19920;-44
2022/07/27 01:31:55;;;;;;;;;;;28.50;38.30;;;;;;8363459;28;19920;-44
2022/07/27 01:35:56;;;;;;;;;;;28.40;38.20;;;;;;8363966;28;19917;-45
2022/07/27 01:39:57;;;;;;;;;;;28.40;38.20;;;;;;8363614;28;19960;-44
2022/07/27 01:43:57;;;;;;;;;;;28.40;38.20;;;;;;8363177;28;19920;-44
2022/07/27 01:47:57;;;;;;;;;;;28.40;38.20;;;;;;8363484;28;20338;-44
2022/07/27 01:51:58;;;;;;;;;;;28.40;38.30;;;;;;8362741;28;19913;-44
2022/07/27 01:55:58;;;;;;;;;;;28.30;38.20;;;;;;8362910;28;19932;-45
2022/07/27 01:59:59;;;;;;;;;;;28.30;38.20;;;;;;8363212;28;19925;-44
2022/07/27 02:03:59;;;;;;;;;;;28.30;38.10;;;;;;8363536;28;19920;-45
2022/07/27 02:08:00;;;;;;;;;;;28.40;38.20;;;;;;8362550;28;19917;-44
2022/07/27 02:16:19;;;;;;;;;;;28.30;38.20;;;;;;8363535;28;19974;-45
2022/07/27 02:20:22;;;;;;;;;;;28.30;38.20;;;;;;8362545;28;19925;-45
2022/07/27 02:24:22;;;;;;;;;;;28.30;38.20;;;;;;8362767;28;19999;-44
2022/07/27 02:28:23;;;;;;;;;;;28.30;38.20;;;;;;8362874;28;19917;-44
2022/07/27 02:32:23;;;;;;;;;;;28.30;38.20;;;;;;8362418;28;20301;-44
2022/07/27 02:36:24;;;;;;;;;;;28.20;38.20;;;;;;8362933;28;19999;-46
2022/07/27 02:40:24;;;;;;;;;;;28.30;38.20;;;;;;8362676;28;20397;-45
2022/07/27 02:44:25;;;;;;;;;;;28.30;38.30;;;;;;8362175;28;19917;-44
2022/07/27 02:48:25;;;;;;;;;;;28.30;38.30;;;;;;8362588;28;19920;-45
2022/07/27 02:52:25;;;;;;;;;;;28.20;38.20;;;;;;8362380;28;20357;-45
2022/07/27 02:56:26;;;;;;;;;;;28.20;38.20;;;;;;8362152;28;19998;-46
2022/07/27 03:00:26;;;;;;;;;;;28.20;38.20;;;;;;8362454;28;19932;-44
2022/07/27 03:04:27;;;;;;;;;;;28.20;38.20;;;;;;8366206;28;19913;-45
2022/07/27 03:08:27;;;;;;;;;;;28.20;38.20;;;;;;8367840;28;19916;-46
2022/07/27 03:12:28;;;;;;;;;;;28.20;38.20;;;;;;8368274;28;19920;-45
2022/07/27 03:16:28;;;;;;;;;;;28.20;38.30;;;;;;8368439;28;19943;-45
2022/07/27 03:20:29;;;;;;;;;;;28.20;38.30;;;;;;8367365;28;19929;-44
2022/07/27 03:24:29;;;;;;;;;;;28.10;38.30;;;;;;8367766;28;19927;-44
2022/07/27 03:28:30;;;;;;;;;;;28.10;38.20;;;;;;8367684;28;20331;-44
2022/07/27 03:32:31;;;;;;;;;;;28.10;38.20;;;;;;8367029;28;19925;-44
2022/07/27 03:36:31;;;;;;;;;;;28.10;38.30;;;;;;8367661;28;19982;-44
2022/07/27 03:40:32;;;;;;;;;;;28.10;38.30;;;;;;8349255;28;20016;-44
2022/07/27 03:44:32;;;;;;;;;;;28.10;38.30;;;;;;8366752;28;19966;-44
2022/07/27 03:48:33;;;;;;;;;;;28.10;38.30;;;;;;8366955;28;19921;-45
2022/07/27 03:52:33;;;;;;;;;;;28.10;38.30;;;;;;8366979;28;20023;-44
2022/07/27 03:56:34;;;;;;;;;;;28.10;38.30;;;;;;8366584;28;19970;-44
2022/07/27 04:00:35;;;;;;;;;;;28.10;38.30;;;;;;8366657;28;19925;-44
2022/07/27 04:04:35;;;;;;;;;;;28.00;38.30;;;;;;8366520;28;19920;-44
2022/07/27 04:08:35;;;;;;;;;;;28.00;38.30;;;;;;8358185;28;19921;-44
2022/07/27 04:12:36;;;;;;;;;;;28.00;38.30;;;;;;8334805;28;19920;-44
2022/07/27 04:16:37;;;;;;;;;;;28.00;38.40;;;;;;8365766;28;19921;-44
2022/07/27 04:20:38;;;;;;;;;;;28.00;38.40;;;;;;8365424;28;20581;-44
2022/07/27 04:24:38;;;;;;;;;;;28.00;38.40;;;;;;8365967;28;19956;-45
2022/07/27 04:28:38;;;;;;;;;;;28.00;38.40;;;;;;8365431;28;20274;-41
2022/07/27 04:32:39;;;;;;;;;;;28.00;38.40;;;;;;8365635;28;19913;-45
2022/07/27 04:36:39;;;;;;;;;;;27.90;38.30;;;;;;8365734;28;19924;-44
2022/07/27 04:40:40;;;;;;;;;;;27.90;38.30;;;;;;8364839;28;19929;-42
2022/07/27 04:44:41;;;;;;;;;;;27.90;38.40;;;;;;8365590;28;19916;-44
2022/07/27 04:48:41;;;;;;;;;;;27.90;38.40;;;;;;8365168;28;19968;-46
2022/07/27 04:52:42;;;;;;;;;;;27.90;38.40;;;;;;8364907;28;19917;-43
2022/07/27 04:56:42;;;;;;;;;;;27.90;38.40;;;;;;8364941;28;19921;-44
2022/07/27 05:00:43;;;;;;;;;;;27.90;38.40;;;;;;8364422;28;20017;-46
2022/07/27 05:04:43;;;;;;;;;;;27.90;38.40;;;;;;8364330;28;19978;-44
2022/07/27 05:08:44;;;;;;;;;;;27.90;38.40;;;;;;8364186;28;19967;-43
2022/07/27 05:12:44;;;;;;;;;;;27.90;38.30;;;;;;8364672;28;19939;-43
2022/07/27 05:16:45;;;;;;;;;;;27.90;38.40;;;;;;8363680;28;19921;-44
2022/07/27 05:20:45;;;;;;;;;;;27.90;38.30;;;;;;8346082;28;20389;-44
2022/07/27 05:24:46;;;;;;;;;;;27.90;38.40;;;;;;8364232;28;19913;-44
2022/07/27 05:28:46;;;;;;;;;;;27.90;38.40;;;;;;8362377;28;20381;-44
2022/07/27 05:32:47;;;;;;;;;;;27.90;38.40;;;;;;8364328;28;19996;-44
2022/07/27 05:36:47;;;;;;;;;;;27.90;38.40;;;;;;8363840;28;19916;-44
2022/07/27 05:40:47;;;;;;;;;;;27.90;38.30;;;;;;8362972;28;19932;-44
2022/07/27 05:44:52;;;;;;;;;;;27.90;38.40;;;;;;8363564;28;19917;-44
2022/07/27 05:48:52;;;;;;;;;;;27.90;38.30;;;;;;8363310;28;19963;-46
2022/07/27 05:52:53;;;;;;;;;;;27.90;38.40;;;;;;8363178;28;19916;-45
2022/07/27 05:56:53;;;;;;;;;;;27.90;38.30;;;;;;8362970;28;20342;-45
2022/07/27 06:00:55;;;;;;;;;;;27.90;38.30;;;;;;8362768;28;19928;-45
2022/07/27 06:04:55;;;;;;;;;;;27.90;38.30;;;;;;8362558;28;19917;-44
2022/07/27 06:08:56;;;;;;;;;;;27.90;38.30;;;;;;8363163;28;19927;-45
2022/07/27 06:12:57;;;;;;;;;;;27.90;38.30;;;;;;8363393;28;19916;-45
2022/07/27 06:16:57;;;;;;;;;;;27.80;38.20;;;;;;8362604;28;19962;-45
2022/07/27 06:21:00;;;;;;;;;;;27.90;38.30;;;;;;8363213;28;19925;-45
2022/07/27 06:25:00;;;;;;;;;;;27.90;38.30;;;;;;8362764;28;20015;-45
2022/07/27 06:29:01;;;;;;;;;;;27.80;38.30;;;;;;8362311;28;20345;-46
2022/07/27 06:33:05;;;;;;;;;;;27.90;38.40;;;;;;8362912;28;20047;-45
2022/07/27 06:37:05;;;;;;;;;;;27.90;38.40;;;;;;8362989;28;20266;-46
2022/07/27 06:41:06;;;;;;;;;;;27.80;38.30;;;;;;8368378;28;19968;-45
2022/07/27 06:45:07;;;;;;;;;;;27.80;38.30;;;;;;8369081;28;19917;-45
2022/07/27 06:49:07;;;;;;;;;;;27.90;38.30;;;;;;8369095;28;19924;-44
2022/07/27 06:53:08;;;;;;;;;;;27.90;38.80;;;;;;8368490;28;20382;-45
2022/07/27 06:57:09;;;;;;;;;;;27.90;38.30;;;;;;8368939;28;19924;-44
2022/07/27 07:01:09;;;;;;;;;;;27.80;38.30;;;;;;8368889;28;19924;-46
2022/07/27 07:05:10;;;;;;;;;;;27.90;38.30;;;;;;8352694;28;19927;-46
2022/07/27 07:09:10;;;;;;;;;;;27.90;38.30;;;;;;8368207;28;19955;-44
2022/07/27 07:13:11;;;;;;;;;;;27.90;38.20;;;;;;8368630;28;19913;-46
2022/07/27 07:17:12;;;;;;;;;;;27.90;38.20;;;;;;8367990;28;19938;-45
2022/07/27 07:21:14;;;;;;;;;;;27.90;38.20;;;;;;8368020;28;19932;-44
2022/07/27 07:25:15;;;;;;;;;;;27.90;38.20;;;;;;8367755;28;19920;-45
2022/07/27 07:29:15;;;;;;;;;;;27.90;38.20;;;;;;8367443;28;19924;-48
2022/07/27 07:33:15;;;;;;;;;;;27.90;38.10;;;;;;8367609;28;19913;-44
2022/07/27 07:37:16;;;;;;;;;;;27.90;38.20;;;;;;8367301;28;19992;-44
2022/07/27 07:41:17;;;;;;;;;;;27.90;38.10;;;;;;8366872;28;20020;-45
2022/07/27 07:45:18;;;;;;;;;;;27.90;38.20;;;;;;8367203;28;20000;-45
2022/07/27 07:49:19;;;;;;;;;;;27.90;38.10;;;;;;8365943;28;19917;-44
2022/07/27 07:53:23;;;;;;;;;;;27.90;38.10;;;;;;8366533;28;19913;-44
2022/07/27 07:57:23;;;;;;;;;;;27.90;38.10;;;;;;8366522;28;20248;-45
2022/07/27 08:01:24;;;;;;;;;;;27.90;38.10;;;;;;8366543;28;19928;-46
2022/07/27 08:05:25;;;;;;;;;;;27.90;38.10;;;;;;8365975;28;19916;-45
2022/07/27 08:09:27;;;;;;;;;;;27.90;38.10;;;;;;8366957;28;20289;-45
2022/07/27 08:13:27;;;;;;;;;;;27.90;38.10;;;;;;8366639;28;19921;-46
2022/07/27 08:17:28;;;;;;;;;;;27.90;38.10;;;;;;8365677;28;20152;-45
2022/07/27 08:21:28;;;;;;;;;;;27.90;38.10;;;;;;8366031;28;19925;-45
2022/07/27 08:25:29;;;;;;;;;;;28.00;38.20;;;;;;8365930;28;19923;-45
2022/07/27 08:29:29;;;;;;;;;;;27.90;38.10;;;;;;8365380;28;20019;-45
2022/07/27 08:33:30;;;;;;;;;;;27.90;38.10;;;;;;8365699;28;20000;-46
2022/07/27 08:37:30;;;;;;;;;;;27.90;38.10;;;;;;8365413;28;19917;-46
2022/07/27 08:41:31;;;;;;;;;;;28.00;38.10;;;;;;8364714;28;20309;-45
2022/07/27 08:45:32;;;;;;;;;;;28.00;38.10;;;;;;8365247;28;20495;-45
2022/07/27 08:49:33;;;;;;;;;;;28.00;38.10;;;;;;8365221;28;19913;-45
2022/07/27 08:53:34;;;;;;;;;;;28.00;38.10;;;;;;8364452;28;20385;-44
2022/07/27 08:57:34;;;;;;;;;;;28.00;38.10;;;;;;8364753;28;20297;-44
2022/07/27 09:01:34;;;;;;;;;;;28.00;38.20;;;;;;8364393;28;20416;-44
2022/07/27 09:05:40;;;;;;;;;;;28.00;38.20;;;;;;8364077;28;19939;-44
2022/07/27 09:09:44;;;;;;;;;;;28.10;38.20;;;;;;8364693;28;19912;-44
2022/07/27 09:13:45;;;;;;;;;;;28.10;38.20;;;;;;8364048;28;19924;-44
2022/07/27 09:17:46;;;;;;;;;;;28.10;38.20;;;;;;8364318;28;19947;-44
2022/07/27 09:21:46;;;;;;;;;;;28.10;38.20;;;;;;8364141;28;19924;-45
2022/07/27 09:25:46;;;;;;;;;;;28.10;38.20;;;;;;8363536;28;19917;-44
2022/07/27 09:29:47;;;;;;;;;;;28.10;38.20;;;;;;8363987;28;19919;-45
2022/07/27 09:33:49;;;;;;;;;;;28.20;38.10;;;;;;8363908;28;19912;-46
2022/07/27 09:37:49;;;;;;;;;;;28.20;38.20;;;;;;8363296;28;19994;-45
2022/07/27 09:41:54;;;;;;;;;;;28.20;38.20;;;;;;8363819;28;19931;-45
2022/07/27 09:45:55;;;;;;;;;;;28.20;38.10;;;;;;8363686;28;19999;-45
2022/07/27 09:49:57;;;;;;;;;;;28.30;38.00;;;;;;8363103;28;19912;-45
2022/07/27 09:54:04;;;;;;;;;;;28.30;38.10;;;;;;8363383;28;19920;-45
2022/07/27 09:58:05;;;;;;;;;;;28.30;38.10;;;;;;8363321;28;19921;-44
2022/07/27 10:02:05;;;;;;;;;;;28.30;38.00;;;;;;8381806;28;19970;-45
2022/07/27 10:06:07;;;;;;;;;;;28.40;38.10;;;;;;8362507;28;19920;-45
2022/07/27 10:10:08;;;;;;;;;;;28.40;38.10;;;;;;8363187;28;19925;-42
2022/07/27 10:14:08;;;;;;;;;;;28.40;38.00;;;;;;8366789;28;19925;-41
2022/07/27 10:18:14;;;;;;;;;;;28.40;38.60;;;;;;8369627;28;19925;-41
2022/07/27 10:22:14;;;;;;;;;;;28.40;37.30;;;;;;8369593;28;19931;-41
2022/07/27 10:26:20;;;;;;;;;;;28.30;37.10;;;;;;8369040;28;19917;-41
2022/07/27 10:30:26;;;;;;;;;;;28.20;37.10;;;;;;8369420;28;19913;-40
2022/07/27 10:34:50;;;;;;;;;;;28.20;36.70;;;;;;8366705;28;19929;-40
2022/07/27 10:38:52;;;;;;;;;;;28.10;35.90;;;;;;8350167;28;19917;-41
2022/07/27 10:43:25;;;;;;;;;;;28.10;35.90;;;;;;8367465;28;20306;-41
2022/07/27 10:47:30;;;;;;;;;;;28.10;35.90;;;;;;8363711;28;19920;-42
2022/07/27 10:51:33;;;;;;;;;;;28.00;35.00;;;;;;8368928;28;20008;-42
2022/07/27 10:55:35;;;;;;;;;;;28.00;34.60;;;;;;8373937;28;19927;-43
2022/07/27 10:59:38;;;;;;;;;;;28.00;34.70;;;;;;8367877;28;20376;-42
2022/07/27 11:03:39;;;;;;;;;;;27.90;34.80;;;;;;8381243;28;19925;-42
2022/07/27 11:07:42;;;;;;;;;;;27.90;35.20;;;;;;8394635;28;19913;-41
2022/07/27 11:11:43;;;;;;;;;;;27.90;35.00;;;;;;8367737;28;19916;-43
2022/07/27 11:15:51;;;;;;;;;;;27.90;34.70;;;;;;8368208;28;19924;-42
2022/07/27 11:19:53;;;;;;;;;;;27.90;34.80;;;;;;8365651;28;19931;-42
2022/07/27 11:23:55;;;;;;;;;;;27.90;34.70;;;;;;8373976;28;19921;-42
2022/07/27 11:27:55;;;;;;;;;;;28.00;35.10;;;;;;8367172;28;19917;-42
2022/07/27 11:31:58;;;;;;;;;;;28.00;34.80;;;;;;8348700;28;19921;-43
2022/07/27 11:35:59;;;;;;;;;;;28.10;34.70;;;;;;8367292;28;19917;-42
2022/07/27 11:40:00;;;;;;;;;;;28.10;34.90;;;;;;8349200;28;19926;-42
2022/07/27 11:44:02;;;;;;;;;;;28.20;35.00;;;;;;8348467;28;19925;-42
2022/07/27 11:48:06;;;;;;;;;;;28.30;35.00;;;;;;8367011;28;19960;-42
2022/07/27 11:52:07;;;;;;;;;;;28.30;35.00;;;;;;8366300;28;20090;-45
2022/07/27 11:56:07;;;;;;;;;;;28.40;34.60;;;;;;8371013;28;20007;-46
2022/07/27 12:00:08;;;;;;;;;;;28.40;35.20;;;;;;8382142;28;19921;-45
2022/07/27 12:04:11;;;;;;;;;;;28.40;35.10;;;;;;8398295;28;19916;-46
2022/07/27 12:08:13;;;;;;;;;;;28.50;35.20;;;;;;8399040;28;20366;-46
2022/07/27 12:12:17;;;;;;;;;;;28.50;35.20;;;;;;8399594;28;19920;-45
2022/07/27 12:16:17;;;;;;;;;;;28.60;35.20;;;;;;8399268;28;19920;-46
2022/07/27 12:20:23;;;;;;;;;;;28.60;35.30;;;;;;8398899;28;19921;-45
2022/07/27 12:24:37;;;;;;;;;;;28.60;35.20;;;;;;8399261;28;19916;-45
2022/07/27 12:28:37;;;;;;;;;;;28.60;35.40;;;;;;8398960;28;19916;-46
2022/07/27 12:32:40;;;;;;;;;;;28.70;35.50;;;;;;8398171;28;19923;-45
2022/07/27 12:36:41;;;;;;;;;;;28.70;35.60;;;;;;8398083;28;19971;-45
2022/07/27 12:40:49;;;;;;;;;;;28.70;35.60;;;;;;8398098;28;19936;-46
2022/07/27 12:44:52;;;;;;;;;;;28.80;35.70;;;;;;8398419;28;20147;-45
2022/07/27 12:48:52;;;;;;;;;;;28.80;35.60;;;;;;8398449;28;19916;-45
2022/07/27 12:52:53;;;;;;;;;;;28.80;35.70;;;;;;8397610;28;19930;-46
2022/07/27 12:56:53;;;;;;;;;;;28.80;35.60;;;;;;8398113;28;19924;-46
2022/07/27 13:00:53;;;;;;;;;;;28.80;35.70;;;;;;8397969;28;20011;-45
2022/07/27 13:04:54;;;;;;;;;;;28.80;35.70;;;;;;8345477;28;19947;-45
2022/07/27 13:08:54;;;;;;;;;;;28.90;35.70;;;;;;8355865;28;19975;-46
2022/07/27 13:12:55;;;;;;;;;;;28.90;35.70;;;;;;8364317;28;20437;-45
2022/07/27 13:16:56;;;;;;;;;;;28.90;35.70;;;;;;8363737;28;20370;-44
2022/07/27 13:20:56;;;;;;;;;;;29.00;35.70;;;;;;8364215;28;19960;-44
2022/07/27 13:24:57;;;;;;;;;;;29.00;35.60;;;;;;8364021;28;20003;-44
2022/07/27 13:28:57;;;;;;;;;;;29.00;35.70;;;;;;8363361;28;19917;-44
2022/07/27 13:32:59;;;;;;;;;;;29.00;35.70;;;;;;8363729;28;20432;-44
2022/07/27 13:37:00;;;;;;;;;;;29.00;35.70;;;;;;8363685;28;19928;-44
2022/07/27 13:41:00;;;;;;;;;;;29.00;35.70;;;;;;8363138;28;19924;-44
2022/07/27 13:45:00;;;;;;;;;;;29.10;35.90;;;;;;8363443;28;19916;-44
2022/07/27 13:49:01;;;;;;;;;;;29.00;35.80;;;;;;8362547;28;19917;-45
2022/07/27 13:53:02;;;;;;;;;;;29.10;35.90;;;;;;8362870;28;19948;-46
2022/07/27 13:57:02;;;;;;;;;;;29.10;35.80;;;;;;8363564;28;19923;-46
2022/07/27 14:01:03;;;;;;;;;;;29.10;35.80;;;;;;8363120;28;19920;-44
2022/07/27 14:05:03;;;;;;;;;;;29.10;35.90;;;;;;8362600;28;19999;-46
2022/07/27 14:09:04;;;;;;;;;;;29.10;35.90;;;;;;8362866;28;19921;-45
2022/07/27 14:13:06;;;;;;;;;;;29.10;35.80;;;;;;8362639;28;19921;-45
2022/07/27 14:17:06;;;;;;;;;;;29.10;35.90;;;;;;8362299;28;19928;-45
2022/07/27 14:21:08;;;;;;;;;;;29.20;35.90;;;;;;8363254;28;19928;-46
2022/07/27 14:25:08;;;;;;;;;;;29.10;35.80;;;;;;8362719;28;19964;-44
2022/07/27 14:29:10;;;;;;;;;;;29.10;35.80;;;;;;8361550;28;21296;-44
2022/07/27 14:33:11;;;;;;;;;;;29.20;35.90;;;;;;8362649;28;19920;-44
2022/07/27 14:37:11;;;;;;;;;;;29.20;35.90;;;;;;8362555;28;19917;-44
2022/07/27 14:41:12;;;;;;;;;;;29.20;35.90;;;;;;8362220;28;19924;-46
2022/07/27 14:45:12;;;;;;;;;;;29.20;35.80;;;;;;8362896;28;20016;-44
2022/07/27 14:49:13;;;;;;;;;;;29.20;35.90;;;;;;8361964;28;20018;-45
2022/07/27 14:53:14;;;;;;;;;;;29.20;36.00;;;;;;8361210;28;19917;-44
2022/07/27 14:57:14;;;;;;;;;;;29.30;36.00;;;;;;8362072;28;19928;-46
2022/07/27 15:01:15;;;;;;;;;;;29.20;35.90;;;;;;8367530;28;20004;-45
2022/07/27 15:05:15;;;;;;;;;;;29.30;35.90;;;;;;8367771;28;20388;-44
2022/07/27 15:09:16;;;;;;;;;;;29.30;35.90;;;;;;8368121;28;19940;-45
2022/07/27 15:13:16;;;;;;;;;;;29.30;35.80;;;;;;8367973;28;19925;-44
2022/07/27 15:17:17;;;;;;;;;;;29.20;35.90;;;;;;8367349;28;19920;-44
2022/07/27 15:21:18;;;;;;;;;;;29.30;35.90;;;;;;8368031;28;19948;-44
2022/07/27 15:25:18;;;;;;;;;;;29.20;35.80;;;;;;8367574;28;19924;-44
2022/07/27 15:29:19;;;;;;;;;;;29.20;35.90;;;;;;8366892;28;19924;-44
2022/07/27 15:33:19;;;;;;;;;;;29.20;36.00;;;;;;8367645;28;19948;-45
2022/07/27 15:37:20;;;;;;;;;;;29.20;36.00;;;;;;8367513;28;19925;-44
2022/07/27 15:41:20;;;;;;;;;;;29.20;36.00;;;;;;8366724;28;19921;-44
2022/07/27 15:45:21;;;;;;;;;;;29.20;36.00;;;;;;8364252;28;20296;-44
2022/07/27 15:49:21;;;;;;;;;;;29.30;36.00;;;;;;8352324;28;20003;-44
2022/07/27 15:53:22;;;;;;;;;;;29.30;36.10;;;;;;8366219;28;20366;-44
2022/07/27 15:57:22;;;;;;;;;;;29.30;36.10;;;;;;8366802;28;19913;-44
2022/07/27 16:01:23;;;;;;;;;;;29.30;36.10;;;;;;8366432;28;19927;-45
2022/07/27 16:05:23;;;;;;;;;;;29.30;36.10;;;;;;8347234;28;20000;-45
2022/07/27 16:09:24;;;;;;;;;;;29.30;36.20;;;;;;8366382;28;20018;-45
2022/07/27 16:13:24;;;;;;;;;;;29.30;36.10;;;;;;8365838;28;20361;-45
2022/07/27 16:17:25;;;;;;;;;;;29.30;36.10;;;;;;8366994;28;20285;-45
2022/07/27 16:21:26;;;;;;;;;;;29.30;36.10;;;;;;8399307;28;20370;-45
2022/07/27 16:25:27;;;;;;;;;;;29.30;36.10;;;;;;8398855;28;19916;-45
2022/07/27 16:29:27;;;;;;;;;;;29.30;36.10;;;;;;8370681;28;20285;-44
2022/07/27 16:33:29;;;;;;;;;;;29.30;36.10;;;;;;8365554;28;20001;-46
2022/07/27 16:37:29;;;;;;;;;;;29.30;36.10;;;;;;8365305;28;19998;-45
2022/07/27 16:41:29;;;;;;;;;;;29.30;36.20;;;;;;8364950;28;19967;-45
2022/07/27 16:45:30;;;;;;;;;;;29.30;36.30;;;;;;8365097;28;20464;-45
2022/07/27 16:49:30;;;;;;;;;;;29.30;36.30;;;;;;8365121;28;19917;-45
2022/07/27 16:53:32;;;;;;;;;;;29.30;36.20;;;;;;8364223;28;20366;-46
2022/07/27 16:57:33;;;;;;;;;;;29.30;36.30;;;;;;8364963;28;19999;-45
2022/07/27 17:01:33;;;;;;;;;;;29.30;36.80;;;;;;8364829;28;20019;-45
2022/07/27 17:05:34;;;;;;;;;;;29.30;36.30;;;;;;8364608;28;19920;-45
2022/07/27 17:09:34;;;;;;;;;;;29.30;36.40;;;;;;8364339;28;19921;-45
2022/07/27 17:13:35;;;;;;;;;;;29.30;36.40;;;;;;8364327;28;19928;-46
2022/07/27 17:17:36;;;;;;;;;;;29.30;36.40;;;;;;8363889;28;19956;-45
2022/07/27 17:21:36;;;;;;;;;;;29.20;36.40;;;;;;8363734;28;19931;-47
2022/07/27 17:25:37;;;;;;;;;;;29.20;36.50;;;;;;8364118;28;19919;-45
2022/07/27 17:29:39;;;;;;;;;;;29.20;36.40;;;;;;8363326;28;19917;-44
2022/07/27 17:33:40;;;;;;;;;;;29.20;36.40;;;;;;8363673;28;19991;-46
2022/07/27 17:37:44;;;;;;;;;;;29.20;36.40;;;;;;8363433;28;20015;-46
2022/07/27 17:41:44;;;;;;;;;;;29.20;36.50;;;;;;8363304;28;19929;-46
2022/07/27 17:45:45;;;;;;;;;;;29.20;36.50;;;;;;8363425;28;19963;-46
2022/07/27 17:49:45;;;;;;;;;;;29.20;36.60;;;;;;8362658;28;19935;-46
2022/07/27 17:53:46;;;;;;;;;;;29.20;36.60;;;;;;8363047;28;20007;-46
2022/07/27 17:57:46;;;;;;;;;;;29.20;36.60;;;;;;8363340;28;19960;-45
2022/07/27 18:01:48;;;;;;;;;;;29.10;36.60;;;;;;8362415;28;20441;-45
2022/07/27 18:05:48;;;;;;;;;;;29.10;36.60;;;;;;8363101;28;19924;-46
2022/07/27 18:09:49;;;;;;;;;;;29.10;36.50;;;;;;8363157;28;20391;-45
2022/07/27 18:13:50;;;;;;;;;;;29.10;36.60;;;;;;8362489;28;19921;-45
2022/07/27 18:17:50;;;;;;;;;;;29.10;36.60;;;;;;8363500;28;19913;-46
2022/07/27 18:21:50;;;;;;;;;;;29.10;36.60;;;;;;8345097;28;19963;-46
2022/07/27 18:25:51;;;;;;;;;;;29.10;36.50;;;;;;8344448;28;20370;-45
2022/07/27 18:29:51;;;;;;;;;;;29.10;36.60;;;;;;8357323;28;20320;-45
2022/07/27 18:33:53;;;;;;;;;;;29.10;36.60;;;;;;8364227;28;19917;-45
2022/07/27 18:37:53;;;;;;;;;;;29.00;36.60;;;;;;8369088;28;19919;-45
2022/07/27 18:42:00;;;;;;;;;;;29.00;36.60;;;;;;8368944;28;19931;-48
2022/07/27 18:46:00;;;;;;;;;;;29.00;36.60;;;;;;8368939;28;20289;-45
2022/07/27 18:50:02;;;;;;;;;;;29.00;36.50;;;;;;8368425;28;19920;-45
2022/07/27 18:54:02;;;;;;;;;;;29.00;36.50;;;;;;8369033;28;20431;-45
2022/07/27 18:58:03;;;;;;;;;;;29.00;36.50;;;;;;8364265;28;19917;-43
2022/07/27 19:02:04;;;;;;;;;;;29.00;36.50;;;;;;8346258;28;19925;-42
2022/07/27 19:06:04;;;;;;;;;;;29.00;36.50;;;;;;8372484;28;20308;-41
2022/07/27 19:10:05;;;;;;;;;;;29.00;36.60;;;;;;8373658;28;19921;-44
2022/07/27 19:14:06;;;;;;;;;;;29.00;36.60;;;;;;8367677;28;19928;-44
2022/07/27 19:18:07;;;;;;;;;;;29.00;36.60;;;;;;8365131;28;20277;-45
2022/07/27 19:22:07;;;;;;;;;;;28.90;36.50;;;;;;8324081;28;19989;-42
2022/07/27 19:26:09;;;;;;;;;;;28.90;36.50;;;;;;8325562;28;19999;-45
2022/07/27 19:30:11;;;;;;;;;;;28.90;36.50;;;;;;8348244;28;19963;-43
2022/07/27 19:34:11;;;;;;;;;;;28.90;36.60;;;;;;8382079;28;19960;-45
2022/07/27 19:38:12;;;;;;;;;;;28.90;36.50;;;;;;8342706;28;20321;-44
2022/07/27 19:42:12;;;;;;;;;;;28.90;36.60;;;;;;8363005;28;19971;-46
2022/07/27 19:46:13;;;;;;;;;;;28.90;36.60;;;;;;8357097;28;19920;-42
2022/07/27 19:50:13;;;;;;;;;;;28.90;36.60;;;;;;8390046;28;19916;-46
2022/07/27 19:54:14;;;;;;;;;;;28.90;36.60;;;;;;8395845;28;20000;-45
2022/07/27 19:58:14;;;;;;;;;;;28.90;36.60;;;;;;8367071;28;20000;-46
2022/07/27 20:02:15;;;;;;;;;;;28.90;37.20;;;;;;8367172;28;19929;-46
2022/07/27 20:06:15;;;;;;;;;;;28.80;36.50;;;;;;8379393;28;19962;-46
2022/07/27 20:10:16;;;;;;;;;;;28.80;36.50;;;;;;8366548;28;19917;-45
2022/07/27 20:14:17;;;;;;;;;;;28.80;36.50;;;;;;8365685;28;19921;-44
2022/07/27 20:18:19;;;;;;;;;;;28.80;36.50;;;;;;8344403;28;19913;-45
2022/07/27 20:22:19;;;;;;;;;;;28.80;36.60;;;;;;8361579;28;20397;-44
2022/07/27 20:26:20;;;;;;;;;;;28.80;36.50;;;;;;8365545;28;19917;-43
2022/07/27 20:30:20;;;;;;;;;;;28.80;36.60;;;;;;8365949;28;20011;-42
2022/07/27 20:34:22;;;;;;;;;;;28.80;36.60;;;;;;8354542;28;19923;-43
2022/07/27 20:38:22;;;;;;;;;;;28.80;36.60;;;;;;8365309;28;19963;-45
2022/07/27 20:42:23;;;;;;;;;;;28.80;36.70;;;;;;8369793;28;19925;-43
2022/07/27 20:46:23;;;;;;;;;;;28.80;36.70;;;;;;8365421;28;19924;-43
2022/07/27 20:50:24;;;;;;;;;;;28.70;36.60;;;;;;8358402;28;19918;-42
2022/07/27 20:54:24;;;;;;;;;;;28.70;36.70;;;;;;8334875;28;20385;-42
2022/07/27 20:58:25;;;;;;;;;;;28.80;36.70;;;;;;8364682;28;19916;-42
2022/07/27 21:02:25;;;;;;;;;;;28.70;36.70;;;;;;8360455;28;19925;-42
2022/07/27 21:06:26;;;;;;;;;;;28.70;36.60;;;;;;8350343;28;20412;-44
2022/07/27 21:10:26;;;;;;;;;;;28.70;36.60;;;;;;8343468;28;19920;-44
2022/07/27 21:14:27;;;;;;;;;;;28.70;36.70;;;;;;8364134;28;19948;-42
2022/07/27 21:18:27;;;;;;;;;;;28.70;36.60;;;;;;8364524;28;19940;-42
2022/07/27 21:22:28;;;;;;;;;;;28.70;36.70;;;;;;8364277;28;19925;-42
2022/07/27 21:26:28;;;;;;;;;;;28.70;36.60;;;;;;8358202;28;19924;-44
2022/07/27 21:30:29;;;;;;;;;;;28.70;36.70;;;;;;8364133;28;19967;-45
2022/07/27 21:34:29;;;;;;;;;;;28.70;36.70;;;;;;8363712;28;19916;-45
2022/07/27 21:38:30;;;;;;;;;;;28.60;36.60;;;;;;8363308;28;19917;-45
2022/07/27 21:42:31;;;;;;;;;;;28.60;36.60;;;;;;8363424;28;19925;-44
2022/07/27 21:46:32;;;;;;;;;;;28.60;36.60;;;;;;8363645;28;19917;-44
2022/07/27 21:50:32;;;;;;;;;;;28.60;36.60;;;;;;8363063;28;19963;-45
2022/07/27 21:54:33;;;;;;;;;;;28.60;36.60;;;;;;8363640;28;19978;-44
2022/07/27 21:58:33;;;;;;;;;;;28.60;36.60;;;;;;8363637;28;19921;-44
2022/07/27 22:02:34;;;;;;;;;;;28.60;36.60;;;;;;8362069;28;19928;-44
2022/07/27 22:06:34;;;;;;;;;;;28.60;36.60;;;;;;8362379;28;20128;-45
2022/07/27 22:10:35;;;;;;;;;;;28.60;36.60;;;;;;8362203;28;19944;-45
2022/07/27 22:14:35;;;;;;;;;;;28.60;36.60;;;;;;8363039;28;19943;-45
2022/07/27 22:18:36;;;;;;;;;;;28.50;36.50;;;;;;8363072;28;19987;-44
2022/07/27 22:22:36;;;;;;;;;;;28.60;36.60;;;;;;8363104;28;20416;-44
2022/07/27 22:26:37;;;;;;;;;;;28.50;36.60;;;;;;8362082;28;19924;-44
2022/07/27 22:30:38;;;;;;;;;;;28.50;36.60;;;;;;8362858;28;20332;-45
2022/07/27 22:34:39;;;;;;;;;;;28.50;36.60;;;;;;8362717;28;19913;-41
2022/07/27 22:38:40;;;;;;;;;;;28.50;36.60;;;;;;8362690;28;19927;-44
2022/07/27 22:42:40;;;;;;;;;;;28.50;36.60;;;;;;8362613;28;19929;-44
2022/07/27 22:46:40;;;;;;;;;;;28.50;36.70;;;;;;8362201;28;19917;-43
2022/07/27 22:50:42;;;;;;;;;;;28.50;36.70;;;;;;8362700;28;19920;-44
2022/07/27 22:54:43;;;;;;;;;;;28.40;36.60;;;;;;8362788;28;20358;-44
2022/07/27 22:58:43;;;;;;;;;;;28.40;36.60;;;;;;8362211;28;19924;-44
2022/07/27 23:02:44;;;;;;;;;;;28.40;36.70;;;;;;8362232;28;19970;-44
2022/07/27 23:06:44;;;;;;;;;;;28.40;36.60;;;;;;8362296;28;20008;-44
2022/07/27 23:10:44;;;;;;;;;;;28.40;36.70;;;;;;8361878;28;19916;-43
2022/07/27 23:14:45;;;;;;;;;;;28.40;36.70;;;;;;8362418;28;19943;-45
2022/07/27 23:18:46;;;;;;;;;;;28.40;36.70;;;;;;8362362;28;19923;-44
2022/07/27 23:22:46;;;;;;;;;;;28.40;36.70;;;;;;8367264;28;19924;-44
2022/07/27 23:26:46;;;;;;;;;;;28.40;36.70;;;;;;8367879;28;20059;-45